Time;durP1;ratioP1;P1;durP2;ratioP2;P2;SDS_P1;SDS_P2;PMS_P1;PMS_P2;Temp;Humidity;BMP_temperature;BMP_pressure;BME280_temperature;BME280_humidity;BME280_pressure;Samples;Min_cycle;Max_cycle;Signal;HPM_P1;HPM_P2
2022/10/01 00:00:33;;;;;;;4.35;3.10;;;14.10;96.40;;;;;;5013262;28;20060;-73
2022/10/01 00:02:59;;;;;;;7.53;4.22;;;14.10;96.40;;;;;;5013645;28;20022;-73
2022/10/01 00:05:25;;;;;;;6.35;3.90;;;14.10;96.50;;;;;;5013460;28;20026;-73
2022/10/01 00:07:51;;;;;;;5.30;3.53;;;14.20;96.60;;;;;;5013210;28;20351;-73
2022/10/01 00:10:16;;;;;;;4.45;3.53;;;14.10;96.60;;;;;;5013206;28;20030;-73
2022/10/01 00:12:45;;;;;;;5.00;3.42;;;14.10;96.60;;;;;;5013200;28;20121;-73
2022/10/01 00:15:14;;;;;;;5.68;3.13;;;14.10;96.90;;;;;;5013480;28;20423;-73
2022/10/01 00:17:42;;;;;;;5.75;3.30;;;13.90;97.50;;;;;;5015354;28;20048;-73
2022/10/01 00:20:08;;;;;;;5.78;4.05;;;13.90;97.10;;;;;;5016937;28;20034;-73
2022/10/01 00:22:35;;;;;;;7.32;4.07;;;13.90;97.40;;;;;;5017236;28;20030;-73
2022/10/01 00:25:02;;;;;;;4.32;3.45;;;13.80;97.70;;;;;;5017256;28;20018;-73
2022/10/01 00:27:28;;;;;;;4.65;3.72;;;13.90;97.90;;;;;;5016821;28;20069;-73
2022/10/01 00:29:54;;;;;;;8.13;4.20;;;13.80;97.80;;;;;;5016607;28;20519;-72
2022/10/01 00:32:20;;;;;;;7.50;3.35;;;13.80;97.90;;;;;;5016895;28;20065;-73
2022/10/01 00:34:47;;;;;;;4.75;3.72;;;13.80;98.00;;;;;;5016994;28;20036;-72
2022/10/01 00:37:13;;;;;;;8.70;4.13;;;13.90;97.90;;;;;;5017006;28;20026;-73
2022/10/01 00:39:39;;;;;;;4.85;3.60;;;13.90;98.00;;;;;;5016450;28;20045;-73
2022/10/01 00:42:20;;;;;;;4.00;3.17;;;13.80;98.10;;;;;;5016781;28;20029;-73
2022/10/01 00:44:48;;;;;;;4.05;3.33;;;13.80;98.10;;;;;;5016987;28;20233;-72
2022/10/01 00:47:41;;;;;;;5.65;3.58;;;13.70;98.30;;;;;;5016315;28;20033;-73
2022/10/01 00:50:15;;;;;;;4.78;3.58;;;13.70;98.50;;;;;;5016600;28;20226;-73
2022/10/01 00:52:44;;;;;;;9.57;3.70;;;13.70;98.50;;;;;;5016744;28;20030;-73
2022/10/01 00:55:14;;;;;;;4.22;3.10;;;13.80;98.50;;;;;;5016549;28;20084;-73
2022/10/01 00:57:42;;;;;;;6.25;3.67;;;13.80;98.40;;;;;;5016385;28;20096;-73
2022/10/01 01:00:11;;;;;;;7.38;3.40;;;13.80;98.30;;;;;;5016659;28;20096;-73
2022/10/01 01:02:37;;;;;;;4.47;3.17;;;13.90;98.40;;;;;;5016504;28;20036;-72
2022/10/01 01:05:03;;;;;;;5.53;3.03;;;13.90;98.50;;;;;;5016689;28;20370;-72
2022/10/01 01:07:31;;;;;;;4.25;3.60;;;13.90;98.40;;;;;;5016532;28;20090;-72
2022/10/01 01:09:57;;;;;;;4.70;3.28;;;13.80;98.30;;;;;;5016152;28;20121;-72
2022/10/01 01:12:43;;;;;;;6.03;4.10;;;13.80;98.50;;;;;;5015850;28;20022;-72
2022/10/01 01:15:38;;;;;;;4.93;3.13;;;13.80;98.80;;;;;;5016088;28;20025;-72
2022/10/01 01:18:08;;;;;;;5.28;2.88;;;13.70;98.80;;;;;;5016406;28;20034;-72
2022/10/01 01:20:46;;;;;;;4.60;3.45;;;13.70;98.90;;;;;;5016226;28;20399;-72
2022/10/01 01:23:14;;;;;;;4.10;3.30;;;13.70;99.00;;;;;;5015715;28;20033;-72
2022/10/01 01:26:09;;;;;;;6.47;3.35;;;13.70;99.10;;;;;;5015868;28;20030;-71
2022/10/01 01:28:40;;;;;;;5.72;3.83;;;13.70;99.10;;;;;;5014895;28;20038;-72
2022/10/01 01:31:16;;;;;;;7.60;3.97;;;13.60;99.20;;;;;;5015610;28;20482;-72
2022/10/01 01:33:46;;;;;;;5.28;3.00;;;13.60;99.40;;;;;;5015784;28;20470;-73
2022/10/01 01:36:18;;;;;;;5.35;3.33;;;13.60;99.40;;;;;;5016032;28;20053;-73
2022/10/01 01:38:53;;;;;;;4.82;3.13;;;13.60;99.40;;;;;;5015730;28;20466;-73
2022/10/01 01:41:22;;;;;;;5.25;3.35;;;13.60;99.50;;;;;;5015676;28;20057;-72
2022/10/01 01:43:50;;;;;;;3.83;2.90;;;13.50;99.60;;;;;;5015584;28;20025;-72
2022/10/01 01:46:17;;;;;;;3.72;3.00;;;13.50;99.70;;;;;;5015664;28;20450;-72
2022/10/01 01:48:46;;;;;;;6.88;3.67;;;13.50;99.90;;;;;;5015608;28;20443;-73
2022/10/01 01:51:28;;;;;;;4.63;3.10;;;13.50;99.70;;;;;;5015789;28;20081;-73
2022/10/01 01:53:53;;;;;;;3.40;3.10;;;13.40;99.70;;;;;;5015497;28;20129;-73
2022/10/01 01:56:19;;;;;;;6.57;3.20;;;13.40;99.80;;;;;;5015484;28;20481;-73
2022/10/01 01:58:45;;;;;;;4.18;2.67;;;13.40;99.80;;;;;;5015513;28;20022;-73
2022/10/01 02:01:38;;;;;;;5.43;2.83;;;13.40;99.90;;;;;;5015567;28;20028;-73
2022/10/01 02:04:11;;;;;;;4.00;3.15;;;13.40;99.90;;;;;;5015449;28;20026;-73
2022/10/01 02:07:14;;;;;;;4.93;2.42;;;13.40;99.90;;;;;;5015420;28;20045;-73
2022/10/01 02:10:11;;;;;;;5.00;2.92;;;13.40;99.90;;;;;;5015208;28;20037;-73
2022/10/01 02:12:40;;;;;;;2.67;2.30;;;13.30;99.90;;;;;;5015346;28;20433;-73
2022/10/01 02:15:26;;;;;;;3.58;2.60;;;13.30;99.90;;;;;;5015012;28;20026;-73
2022/10/01 02:18:15;;;;;;;3.78;2.38;;;13.20;99.90;;;;;;5015082;28;20383;-73
2022/10/01 02:21:07;;;;;;;4.75;2.35;;;13.20;99.90;;;;;;5014702;28;20034;-73
2022/10/01 02:23:42;;;;;;;2.85;2.10;;;13.20;99.90;;;;;;5015121;28;20377;-73
2022/10/01 02:26:14;;;;;;;3.78;1.70;;;13.10;99.90;;;;;;5014661;28;20087;-72
2022/10/01 02:28:43;;;;;;;3.58;1.90;;;13.10;99.90;;;;;;5014894;28;20076;-72
2022/10/01 02:31:11;;;;;;;3.97;1.88;;;13.20;99.90;;;;;;5014752;28;20083;-72
2022/10/01 02:33:38;;;;;;;3.67;1.92;;;13.20;99.90;;;;;;5014593;28;20427;-72
2022/10/01 02:36:07;;;;;;;4.78;1.90;;;13.10;99.90;;;;;;5014895;28;20025;-72
2022/10/01 02:38:35;;;;;;;6.00;2.17;;;13.20;99.90;;;;;;5014787;28;20152;-72
2022/10/01 02:41:04;;;;;;;2.40;1.45;;;13.20;99.90;;;;;;5014106;28;20057;-73
2022/10/01 02:43:37;;;;;;;3.40;1.25;;;13.20;99.90;;;;;;5014395;28;20057;-72
2022/10/01 02:46:15;;;;;;;1.77;1.20;;;13.20;99.90;;;;;;5014482;28;20600;-73
2022/10/01 02:48:40;;;;;;;2.67;1.20;;;13.20;99.90;;;;;;5014446;28;20499;-73
2022/10/01 02:51:24;;;;;;;2.58;1.10;;;13.20;99.90;;;;;;5014585;28;20275;-73
2022/10/01 02:54:00;;;;;;;2.97;1.08;;;13.20;99.90;;;;;;5014282;28;20025;-73
2022/10/01 02:59:21;;;;;;;1.60;0.90;;;13.30;99.90;;;;;;5043918;28;20389;-73
2022/10/01 03:01:47;;;;;;;1.80;1.00;;;13.30;99.90;;;;;;5014152;28;20113;-74
2022/10/01 03:04:12;;;;;;;1.20;0.70;;;13.30;99.90;;;;;;5014419;28;20104;-73
2022/10/01 03:06:38;;;;;;;1.10;0.88;;;13.30;99.90;;;;;;5013885;28;20515;-74
2022/10/01 03:09:03;;;;;;;3.20;0.80;;;13.30;99.90;;;;;;5014221;28;20039;-73
2022/10/01 03:11:29;;;;;;;1.45;0.50;;;13.20;99.90;;;;;;5014007;28;20018;-74
2022/10/01 03:13:55;;;;;;;1.13;0.60;;;13.20;99.90;;;;;;5014029;28;20038;-73
2022/10/01 03:16:21;;;;;;;0.90;0.60;;;13.10;99.90;;;;;;5013975;28;20148;-73
2022/10/01 03:18:46;;;;;;;1.05;0.40;;;13.10;99.90;;;;;;5013986;28;20523;-73
2022/10/01 03:21:12;;;;;;;0.70;0.50;;;13.10;99.90;;;;;;5013825;28;20025;-73
2022/10/01 03:23:37;;;;;;;0.85;0.50;;;13.00;99.90;;;;;;5014091;28;20037;-73
2022/10/01 03:26:03;;;;;;;1.02;0.52;;;13.00;99.90;;;;;;5013662;28;20062;-74
2022/10/01 03:28:28;;;;;;;0.85;0.55;;;12.90;99.90;;;;;;5013715;28;20034;-73
2022/10/01 03:31:07;;;;;;;1.08;0.45;;;13.00;99.90;;;;;;5013747;28;20113;-73
2022/10/01 03:33:32;;;;;;;1.23;0.40;;;12.90;99.90;;;;;;5013784;28;20026;-73
2022/10/01 03:35:58;;;;;;;1.90;0.38;;;13.00;99.90;;;;;;5013377;28;20496;-74
2022/10/01 03:38:24;;;;;;;0.85;0.40;;;12.90;99.90;;;;;;5013970;28;20026;-74
2022/10/01 03:40:49;;;;;;;0.70;0.35;;;13.00;99.90;;;;;;5013633;28;20026;-73
2022/10/01 03:43:15;;;;;;;0.95;0.40;;;13.00;99.90;;;;;;5013760;28;20030;-73
2022/10/01 03:45:40;;;;;;;2.63;0.40;;;13.00;99.90;;;;;;5013537;28;20025;-73
2022/10/01 03:48:06;;;;;;;1.15;0.52;;;13.10;99.90;;;;;;5013293;28;20083;-73
2022/10/01 03:50:31;;;;;;;0.65;0.30;;;13.10;99.90;;;;;;5013436;28;20473;-73
2022/10/01 03:52:57;;;;;;;0.93;0.40;;;13.10;99.90;;;;;;5012921;28;20026;-73
2022/10/01 03:55:24;;;;;;;0.68;0.40;;;13.10;99.90;;;;;;5013586;28;20030;-74
2022/10/01 03:57:50;;;;;;;1.05;0.40;;;13.10;99.90;;;;;;5013690;28;20022;-73
2022/10/01 04:00:17;;;;;;;1.48;0.40;;;13.20;99.90;;;;;;5013370;28;20034;-73
2022/10/01 04:02:43;;;;;;;0.60;0.30;;;13.20;99.90;;;;;;5013462;28;20116;-74
2022/10/01 04:05:09;;;;;;;1.05;0.40;;;13.20;99.90;;;;;;5013029;28;20100;-73
2022/10/01 04:07:34;;;;;;;4.57;0.40;;;13.20;99.90;;;;;;5013326;28;20026;-73
2022/10/01 04:10:00;;;;;;;1.08;0.30;;;13.20;99.90;;;;;;5013600;28;20129;-73
2022/10/01 04:12:26;;;;;;;1.08;0.30;;;13.20;99.90;;;;;;5013210;28;20141;-73
2022/10/01 04:14:51;;;;;;;1.30;0.35;;;13.20;99.90;;;;;;5013384;28;20061;-72
2022/10/01 04:17:17;;;;;;;0.40;0.30;;;13.30;99.90;;;;;;5013574;28;20561;-72
2022/10/01 04:19:42;;;;;;;0.70;0.30;;;13.30;99.90;;;;;;5013135;28;20034;-73
2022/10/01 04:22:08;;;;;;;1.02;0.25;;;13.40;99.90;;;;;;5013444;28;20025;-73
2022/10/01 04:24:33;;;;;;;1.88;0.30;;;13.40;99.90;;;;;;5013209;28;20552;-73
2022/10/01 04:26:59;;;;;;;0.63;0.30;;;13.40;99.90;;;;;;5012971;28;20081;-73
2022/10/01 04:29:25;;;;;;;1.77;0.40;;;13.40;99.90;;;;;;5013048;28;20084;-72
2022/10/01 04:31:52;;;;;;;1.60;0.40;;;13.40;99.90;;;;;;5013208;28;20026;-72
2022/10/01 04:34:50;;;;;;;1.13;0.40;;;13.40;99.90;;;;;;5013039;28;20026;-73
2022/10/01 04:37:03;;;;;;;0.77;0.40;;;13.40;99.90;;;;;;5012953;28;20470;-73
2022/10/01 04:39:29;;;;;;;0.80;0.30;;;13.40;99.90;;;;;;5013312;28;20026;-73
2022/10/01 04:41:54;;;;;;;1.67;0.30;;;13.40;99.90;;;;;;5013344;28;20466;-73
2022/10/01 04:44:20;;;;;;;0.73;0.30;;;13.40;99.90;;;;;;5013280;28;20446;-73
2022/10/01 04:46:45;;;;;;;0.80;0.30;;;13.40;99.90;;;;;;5012990;28;20405;-73
2022/10/01 04:49:11;;;;;;;2.47;0.30;;;13.50;99.90;;;;;;5012795;28;20036;-74
2022/10/01 04:51:36;;;;;;;0.50;0.28;;;13.50;99.90;;;;;;5013160;28;20041;-72
2022/10/01 04:54:02;;;;;;;1.23;0.30;;;13.40;99.90;;;;;;5013213;28;20026;-73
2022/10/01 04:56:27;;;;;;;0.80;0.35;;;13.40;99.90;;;;;;5012634;28;20565;-72
2022/10/01 04:58:53;;;;;;;0.90;0.40;;;13.40;99.90;;;;;;5013003;28;20109;-72
2022/10/01 05:01:19;;;;;;;0.60;0.30;;;13.50;99.90;;;;;;5013132;28;20461;-72
2022/10/01 05:03:45;;;;;;;0.90;0.30;;;13.40;99.90;;;;;;5013153;28;20409;-73
2022/10/01 05:06:11;;;;;;;1.17;0.40;;;13.50;99.90;;;;;;5016319;28;20482;-73
2022/10/01 05:08:37;;;;;;;1.10;0.25;;;13.50;99.90;;;;;;5016466;28;20044;-73
2022/10/01 05:11:03;;;;;;;1.30;0.52;;;13.50;99.90;;;;;;5016306;28;20045;-73
2022/10/01 05:13:28;;;;;;;0.63;0.30;;;13.50;99.90;;;;;;5016338;28;20022;-73
2022/10/01 05:15:54;;;;;;;0.85;0.30;;;13.50;99.90;;;;;;5015925;28;20030;-73
2022/10/01 05:18:20;;;;;;;1.85;0.50;;;13.50;99.90;;;;;;5016402;28;20029;-73
2022/10/01 05:20:45;;;;;;;0.70;0.40;;;13.60;99.90;;;;;;5016198;28;20048;-73
2022/10/01 05:23:11;;;;;;;1.42;0.47;;;13.60;99.90;;;;;;5016155;28;20419;-73
2022/10/01 05:25:36;;;;;;;0.60;0.38;;;13.60;99.90;;;;;;5015716;28;20022;-73
2022/10/01 05:28:04;;;;;;;1.00;0.32;;;13.60;99.90;;;;;;5015944;28;20037;-73
2022/10/01 05:30:30;;;;;;;1.20;0.50;;;13.70;99.90;;;;;;5015858;28;20400;-73
2022/10/01 05:32:59;;;;;;;0.60;0.40;;;13.70;99.90;;;;;;5015929;28;20033;-73
2022/10/01 05:35:25;;;;;;;1.42;0.40;;;13.70;99.90;;;;;;5015798;28;20059;-72
2022/10/01 05:37:55;;;;;;;1.00;0.40;;;13.70;99.90;;;;;;5015754;28;20022;-73
2022/10/01 05:40:21;;;;;;;0.85;0.50;;;13.70;99.90;;;;;;5015667;28;20592;-73
2022/10/01 05:42:47;;;;;;;0.70;0.40;;;13.70;99.90;;;;;;5015717;28;20061;-73
2022/10/01 05:45:12;;;;;;;2.28;0.52;;;13.80;99.90;;;;;;5015542;28;20021;-73
2022/10/01 05:47:41;;;;;;;1.58;0.68;;;13.80;99.90;;;;;;5015606;28;20469;-72
2022/10/01 05:50:07;;;;;;;3.42;0.68;;;13.80;99.90;;;;;;5015728;28;20041;-74
2022/10/01 05:52:33;;;;;;;1.73;0.55;;;13.80;99.90;;;;;;5015560;28;20376;-73
2022/10/01 05:54:58;;;;;;;1.77;0.63;;;13.80;99.90;;;;;;5015529;28;20109;-73
2022/10/01 05:57:24;;;;;;;0.95;0.70;;;13.70;99.90;;;;;;5015650;28;20421;-73
2022/10/01 05:59:49;;;;;;;2.15;0.80;;;13.80;99.90;;;;;;5015337;28;20105;-73
2022/10/01 06:02:15;;;;;;;1.45;0.90;;;13.80;99.90;;;;;;5015439;28;20113;-74
2022/10/01 06:04:41;;;;;;;1.10;0.88;;;13.80;99.90;;;;;;5015127;28;20037;-73
2022/10/01 06:07:06;;;;;;;4.13;1.23;;;13.80;99.90;;;;;;5015172;28;20092;-73
2022/10/01 06:09:32;;;;;;;2.75;1.10;;;13.80;99.90;;;;;;5014996;28;20116;-74
2022/10/01 06:11:57;;;;;;;1.15;1.05;;;13.90;99.90;;;;;;5015371;28;20100;-73
2022/10/01 06:14:23;;;;;;;1.73;1.33;;;13.90;99.90;;;;;;5014583;28;20022;-74
2022/10/01 06:16:53;;;;;;;2.25;1.10;;;13.90;99.90;;;;;;5015194;28;20022;-73
2022/10/01 06:19:18;;;;;;;2.08;1.40;;;13.90;99.90;;;;;;5015170;28;20037;-73
2022/10/01 06:21:44;;;;;;;2.65;1.50;;;13.90;99.90;;;;;;5014853;28;20026;-74
2022/10/01 06:24:09;;;;;;;2.05;1.70;;;13.90;99.90;;;;;;5015073;28;20393;-73
2022/10/01 06:26:35;;;;;;;2.30;1.83;;;13.90;99.90;;;;;;5014537;28;20046;-73
2022/10/01 06:29:02;;;;;;;3.40;2.10;;;14.00;99.90;;;;;;5014878;28;20041;-73
2022/10/01 06:31:28;;;;;;;1.92;1.73;;;14.00;99.90;;;;;;5014761;28;20418;-73
2022/10/01 06:33:54;;;;;;;2.60;2.33;;;14.00;99.90;;;;;;5014605;28;20072;-74
2022/10/01 06:36:19;;;;;;;2.85;2.47;;;14.00;99.90;;;;;;5014827;28;20030;-75
2022/10/01 06:38:48;;;;;;;3.42;2.50;;;14.00;99.90;;;;;;5014306;28;20377;-74
2022/10/01 06:41:14;;;;;;;3.85;2.70;;;14.10;99.90;;;;;;5014369;28;20493;-74
2022/10/01 06:43:39;;;;;;;2.60;2.40;;;14.10;99.90;;;;;;5014482;28;20030;-74
2022/10/01 06:46:05;;;;;;;4.25;2.60;;;14.10;99.90;;;;;;5014775;28;20048;-74
2022/10/01 06:48:34;;;;;;;3.75;2.83;;;14.10;99.90;;;;;;5014399;28;20104;-73
2022/10/01 06:50:59;;;;;;;3.42;3.13;;;14.10;99.90;;;;;;5014286;28;20414;-73
2022/10/01 06:53:26;;;;;;;4.63;3.47;;;14.10;99.90;;;;;;5014068;28;20057;-73
2022/10/01 06:55:52;;;;;;;4.13;3.67;;;14.20;99.90;;;;;;5014554;28;20140;-73
2022/10/01 06:58:25;;;;;;;4.47;3.88;;;14.20;99.90;;;;;;5014182;28;20537;-73
2022/10/01 07:00:56;;;;;;;;;;;14.20;99.90;;;;;;5014870;28;20026;-73
2022/10/01 07:03:22;;;;;;;6.85;4.75;;;14.20;99.90;;;;;;5014136;28;20000;-73
2022/10/01 07:05:48;;;;;;;6.13;4.78;;;14.20;99.90;;;;;;5014235;28;20053;-73
2022/10/01 07:08:15;;;;;;;7.05;5.20;;;14.20;99.90;;;;;;5014130;28;20432;-73
2022/10/01 07:10:41;;;;;;;5.38;4.80;;;14.20;99.90;;;;;;5013851;28;20381;-73
2022/10/01 07:13:15;;;;;;;5.75;5.00;;;14.20;99.90;;;;;;5014204;28;20033;-73
2022/10/01 07:15:41;;;;;;;6.72;5.30;;;14.20;99.90;;;;;;5014254;28;20441;-73
2022/10/01 07:18:10;;;;;;;8.13;6.50;;;14.30;99.90;;;;;;5013674;28;20026;-74
2022/10/01 07:20:40;;;;;;;8.48;6.20;;;14.30;99.90;;;;;;5013757;28;20034;-74
2022/10/01 07:23:09;;;;;;;6.15;5.55;;;14.40;99.90;;;;;;5014076;28;20022;-74
2022/10/01 07:25:37;;;;;;;7.10;6.40;;;14.40;99.90;;;;;;5013702;28;20037;-74
2022/10/01 07:28:04;;;;;;;7.70;6.72;;;14.40;99.90;;;;;;5013264;28;20029;-72
2022/10/01 07:30:31;;;;;;;7.50;6.55;;;14.40;99.90;;;;;;5013504;28;20033;-73
2022/10/01 07:32:56;;;;;;;8.52;6.47;;;14.40;99.90;;;;;;5014024;28;20014;-73
2022/10/01 07:35:22;;;;;;;7.60;6.80;;;14.50;99.90;;;;;;5013827;28;20030;-73
2022/10/01 07:37:49;;;;;;;9.07;7.50;;;14.50;99.90;;;;;;5013857;28;20025;-73
2022/10/01 07:40:16;;;;;;;7.40;6.65;;;14.50;99.90;;;;;;5013644;28;20025;-73
2022/10/01 07:42:43;;;;;;;7.68;6.32;;;14.50;99.90;;;;;;5013895;28;20420;-74
2022/10/01 07:45:09;;;;;;;7.60;6.57;;;14.50;99.90;;;;;;5013845;28;20018;-73
2022/10/01 07:47:34;;;;;;;7.80;7.05;;;14.50;99.90;;;;;;5013496;28;20033;-73
2022/10/01 07:50:00;;;;;;;11.77;7.28;;;14.60;99.90;;;;;;5013345;28;20117;-73
2022/10/01 07:52:26;;;;;;;7.35;6.65;;;14.60;99.90;;;;;;5013471;28;20022;-73
2022/10/01 07:54:51;;;;;;;8.60;7.15;;;14.60;99.90;;;;;;5013656;28;20545;-73
2022/10/01 07:57:17;;;;;;;10.10;8.10;;;14.60;99.90;;;;;;5013174;28;20030;-74
2022/10/01 07:59:42;;;;;;;7.63;6.82;;;14.70;99.90;;;;;;5013550;28;20065;-73
2022/10/01 08:02:15;;;;;;;11.82;8.70;;;14.70;99.90;;;;;;5013923;28;20343;-73
2022/10/01 08:07:25;;;;;;;12.70;9.27;;;14.70;99.90;;;;;;5013360;28;20044;-73
2022/10/01 08:09:50;;;;;;;14.30;8.95;;;14.70;99.90;;;;;;5013137;28;20034;-73
2022/10/01 08:12:18;;;;;;;10.13;8.35;;;14.70;99.90;;;;;;5013152;28;20251;-73
2022/10/01 08:14:45;;;;;;;14.43;9.13;;;14.80;99.90;;;;;;5013360;28;20064;-74
2022/10/01 08:17:10;;;;;;;10.20;8.52;;;14.80;99.90;;;;;;5012882;28;20066;-74
2022/10/01 08:19:36;;;;;;;13.43;9.20;;;14.80;99.90;;;;;;5013291;28;20485;-74
2022/10/01 08:22:01;;;;;;;12.10;8.93;;;14.90;99.90;;;;;;5012956;28;20022;-74
2022/10/01 08:24:27;;;;;;;11.13;9.85;;;14.90;99.90;;;;;;5013247;28;20057;-73
2022/10/01 08:26:56;;;;;;;12.25;9.00;;;15.00;99.90;;;;;;5012749;28;20095;-72
2022/10/01 08:29:22;;;;;;;9.68;8.63;;;15.00;99.90;;;;;;5013191;28;20153;-73
2022/10/01 08:31:48;;;;;;;10.77;9.70;;;15.00;99.90;;;;;;5012778;28;20482;-73
2022/10/01 08:34:14;;;;;;;10.15;9.23;;;15.10;99.90;;;;;;5013215;28;20028;-74
2022/10/01 08:36:40;;;;;;;13.07;9.30;;;15.20;99.90;;;;;;5012788;28;20462;-73
2022/10/01 08:39:06;;;;;;;12.55;9.45;;;15.10;99.90;;;;;;5015873;28;20030;-72
2022/10/01 08:41:58;;;;;;;10.90;8.90;;;15.20;99.90;;;;;;5016725;28;20512;-73
2022/10/01 08:44:42;;;;;;;16.75;10.27;;;15.20;99.90;;;;;;5016977;28;20026;-72
2022/10/01 08:47:32;;;;;;;13.95;9.93;;;15.20;99.90;;;;;;5016494;28;20029;-73
2022/10/01 08:50:04;;;;;;;13.80;9.40;;;15.20;99.90;;;;;;5016734;28;20068;-72
2022/10/01 08:52:36;;;;;;;11.33;9.30;;;15.20;99.90;;;;;;5016496;28;20034;-72
2022/10/01 08:55:26;;;;;;;12.50;9.48;;;15.30;99.90;;;;;;5016569;28;20503;-73
2022/10/01 08:57:59;;;;;;;8.50;7.68;;;15.50;99.90;;;;;;5016658;28;20025;-73
2022/10/01 09:00:27;;;;;;;11.10;6.78;;;15.60;99.90;;;;;;5016771;28;20382;-73
2022/10/01 09:02:56;;;;;;;10.38;5.53;;;15.70;99.90;;;;;;5016182;28;20034;-74
2022/10/01 09:05:40;;;;;;;7.32;5.93;;;15.60;99.90;;;;;;5016490;28;20096;-74
2022/10/01 09:08:15;;;;;;;9.20;5.72;;;15.60;99.90;;;;;;5016374;28;20022;-74
2022/10/01 09:10:52;;;;;;;6.28;5.30;;;15.60;99.90;;;;;;5016315;28;20569;-73
2022/10/01 09:13:32;;;;;;;8.80;6.05;;;15.50;99.90;;;;;;5016231;28;20104;-73
2022/10/01 09:16:49;;;;;;;8.40;5.28;;;15.50;99.90;;;;;;5016278;28;20026;-73
2022/10/01 09:19:30;;;;;;;11.63;6.07;;;15.40;99.90;;;;;;5003068;28;20402;-74
2022/10/01 09:21:57;;;;;;;9.95;5.75;;;15.40;99.90;;;;;;5016057;28;20022;-73
2022/10/01 09:24:48;;;;;;;7.50;5.10;;;15.40;99.90;;;;;;5015769;28;20072;-73
2022/10/01 09:27:23;;;;;;;8.88;4.78;;;15.40;99.90;;;;;;5015857;28;20046;-72
2022/10/01 09:30:00;;;;;;;9.32;4.55;;;15.40;99.90;;;;;;5015996;28;20113;-74
2022/10/01 09:32:30;;;;;;;7.60;3.72;;;15.40;99.90;;;;;;5016318;28;20018;-72
2022/10/01 09:34:59;;;;;;;6.03;3.70;;;15.30;99.90;;;;;;5015901;28;20030;-73
2022/10/01 09:37:53;;;;;;;9.55;3.63;;;15.40;99.90;;;;;;5015997;28;20057;-73
2022/10/01 09:40:53;;;;;;;4.95;2.80;;;15.30;99.90;;;;;;5015703;28;20026;-73
2022/10/01 09:43:20;;;;;;;7.75;2.85;;;15.30;99.90;;;;;;5016596;28;20049;-73
2022/10/01 09:45:46;;;;;;;6.95;3.10;;;15.30;99.90;;;;;;5015776;28;20108;-73
2022/10/01 09:48:37;;;;;;;6.18;2.90;;;15.30;99.90;;;;;;5015432;28;20489;-73
2022/10/01 09:51:11;;;;;;;5.90;2.40;;;15.40;99.90;;;;;;5014568;28;20108;-72
2022/10/01 09:54:02;;;;;;;7.32;2.65;;;15.40;99.90;;;;;;5015585;28;20116;-72
2022/10/01 09:56:41;;;;;;;9.93;3.15;;;15.50;99.90;;;;;;5015490;28;20025;-73
2022/10/01 09:59:12;;;;;;;10.38;2.00;;;15.50;99.90;;;;;;5015722;28;20026;-73
2022/10/01 10:01:47;;;;;;;6.57;1.40;;;15.60;99.90;;;;;;5015177;28;20113;-74
2022/10/01 10:04:19;;;;;;;6.65;1.05;;;15.60;99.90;;;;;;5015544;28;20048;-73
2022/10/01 10:06:46;;;;;;;11.02;1.30;;;15.60;99.90;;;;;;5015178;28;20393;-73
2022/10/01 10:09:17;;;;;;;5.53;0.90;;;15.70;99.90;;;;;;5015071;28;20172;-73
2022/10/01 10:11:44;;;;;;;4.60;0.38;;;15.90;99.90;;;;;;5015050;28;20029;-74
2022/10/01 10:14:28;;;;;;;6.68;0.80;;;16.10;99.90;;;;;;5014956;28;20029;-74
2022/10/01 10:16:55;;;;;;;3.58;0.50;;;16.20;99.90;;;;;;5015000;28;20026;-74
2022/10/01 10:19:24;;;;;;;6.95;0.77;;;16.40;99.90;;;;;;5014905;28;20029;-74
2022/10/01 10:21:58;;;;;;;5.20;0.93;;;16.60;99.90;;;;;;5014770;28;20485;-73
2022/10/01 10:24:26;;;;;;;9.18;1.42;;;16.70;99.90;;;;;;5014803;28;20026;-74
2022/10/01 10:26:55;;;;;;;7.78;0.98;;;16.90;99.90;;;;;;5014260;28;20387;-74
2022/10/01 10:29:32;;;;;;;6.53;0.80;;;17.10;99.90;;;;;;5014520;28;20041;-73
2022/10/01 10:32:30;;;;;;;8.88;1.10;;;17.30;99.90;;;;;;5014809;28;20432;-73
2022/10/01 10:35:02;;;;;;;7.53;0.80;;;17.30;99.90;;;;;;5023578;28;20443;-73
2022/10/01 10:37:34;;;;;;;8.35;0.90;;;17.20;99.90;;;;;;5014404;28;20108;-74
2022/10/01 10:40:01;;;;;;;11.70;1.10;;;17.10;99.90;;;;;;5014807;28;20026;-74
2022/10/01 10:42:27;;;;;;;11.73;1.13;;;17.10;99.90;;;;;;5014491;28;20064;-74
2022/10/01 10:44:55;;;;;;;11.13;1.35;;;17.00;99.90;;;;;;5014427;28;20018;-74
2022/10/01 10:47:23;;;;;;;8.30;1.00;;;17.00;99.90;;;;;;5014278;28;20050;-74
2022/10/01 10:50:01;;;;;;;10.68;1.52;;;16.90;99.90;;;;;;5014251;28;20097;-74
2022/10/01 10:52:35;;;;;;;8.88;1.30;;;16.90;99.90;;;;;;5014265;28;20026;-74
2022/10/01 10:55:18;;;;;;;9.35;1.10;;;16.80;99.90;;;;;;5014386;28;20060;-74
2022/10/01 10:57:43;;;;;;;11.65;1.17;;;16.80;99.90;;;;;;5014017;28;20478;-73
2022/10/01 11:00:18;;;;;;;8.80;1.33;;;16.70;99.90;;;;;;5013893;28;20030;-74
2022/10/01 11:02:53;;;;;;;7.90;0.88;;;16.60;99.90;;;;;;5014113;28;20473;-74
2022/10/01 11:05:22;;;;;;;8.63;0.90;;;16.60;99.90;;;;;;5013950;28;20038;-74
2022/10/01 11:07:52;;;;;;;10.48;1.60;;;16.60;99.90;;;;;;5013855;28;20057;-74
2022/10/01 11:10:21;;;;;;;13.02;2.25;;;16.60;99.80;;;;;;5013816;28;20085;-73
2022/10/01 11:13:28;;;;;;;13.75;1.92;;;16.50;99.80;;;;;;5013874;28;20030;-73
2022/10/01 11:16:16;;;;;;;11.90;1.40;;;16.50;99.50;;;;;;5014023;28;20096;-74
2022/10/01 11:19:04;;;;;;;13.05;1.38;;;16.40;99.10;;;;;;5013725;28;20496;-73
2022/10/01 11:22:04;;;;;;;7.38;1.08;;;16.30;98.90;;;;;;5014072;28;20045;-74
2022/10/01 11:24:48;;;;;;;9.13;1.30;;;16.40;98.90;;;;;;5013798;28;20441;-74
2022/10/01 11:27:35;;;;;;;14.68;1.20;;;16.60;98.70;;;;;;5013187;28;20557;-74
2022/10/01 11:30:12;;;;;;;10.82;1.30;;;16.80;98.40;;;;;;5013842;28;20033;-74
2022/10/01 11:32:50;;;;;;;5.90;0.88;;;17.00;98.10;;;;;;5013608;28;20065;-73
2022/10/01 11:35:17;;;;;;;10.52;1.05;;;17.20;97.90;;;;;;5013825;28;20381;-74
2022/10/01 11:38:08;;;;;;;15.07;2.03;;;17.30;97.90;;;;;;5013407;28;20033;-74
2022/10/01 11:41:03;;;;;;;6.78;1.10;;;17.50;96.40;;;;;;5013321;28;20055;-74
2022/10/01 11:44:13;;;;;;;11.10;0.82;;;17.60;95.80;;;;;;5014530;28;20113;-74
2022/10/01 11:47:00;;;;;;;8.55;1.33;;;17.70;94.70;;;;;;5030983;28;20021;-74
2022/10/01 11:49:52;;;;;;;5.68;0.63;;;17.60;94.90;;;;;;5030759;28;20026;-74
2022/10/01 11:52:45;;;;;;;8.70;1.10;;;17.60;94.90;;;;;;5014191;28;20109;-74
2022/10/01 11:58:49;;;;;;;6.00;0.63;;;17.40;94.70;;;;;;5013400;28;20161;-73
2022/10/01 12:01:24;;;;;;;12.15;1.55;;;17.40;94.00;;;;;;5013177;28;20033;-74
2022/10/01 12:03:53;;;;;;;7.57;0.90;;;17.50;94.10;;;;;;5013568;28;20022;-73
2022/10/01 12:06:42;;;;;;;8.07;1.08;;;17.60;93.60;;;;;;5013508;28;20018;-74
2022/10/01 12:09:19;;;;;;;10.13;0.80;;;17.60;93.50;;;;;;5021658;28;20057;-74
2022/10/01 12:12:04;;;;;;;11.07;0.80;;;17.80;93.20;;;;;;5013191;28;20109;-74
2022/10/01 12:14:57;;;;;;;6.18;0.88;;;17.90;93.30;;;;;;5016594;28;20109;-74
2022/10/01 12:17:45;;;;;;;7.30;0.57;;;18.00;93.10;;;;;;5019272;28;20080;-74
2022/10/01 12:20:38;;;;;;;8.52;1.15;;;18.20;92.00;;;;;;5017336;28;20034;-73
2022/10/01 12:23:06;;;;;;;11.53;1.50;;;18.20;91.60;;;;;;5017023;28;20476;-73
2022/10/01 12:25:58;;;;;;;9.23;1.23;;;18.40;92.00;;;;;;5016537;28;20273;-73
2022/10/01 12:28:41;;;;;;;6.65;1.08;;;18.50;91.80;;;;;;5016723;28;20117;-74
2022/10/01 12:31:18;;;;;;;7.97;1.42;;;18.70;92.70;;;;;;5016871;28;20036;-74
2022/10/01 12:33:59;;;;;;;6.70;1.00;;;18.70;94.00;;;;;;5016551;28;20498;-74
2022/10/01 12:36:42;;;;;;;4.88;0.85;;;18.60;93.60;;;;;;5016431;28;20474;-74
2022/10/01 12:39:25;;;;;;;5.40;0.93;;;18.30;93.00;;;;;;5016625;28;20022;-73
2022/10/01 12:41:55;;;;;;;;;;;17.90;92.80;;;;;;5017143;28;20061;-73
2022/10/01 12:44:48;;;;;;;7.25;0.75;;;17.70;93.10;;;;;;5016802;28;20341;-74
2022/10/01 12:47:26;;;;;;;10.18;0.80;;;17.40;93.50;;;;;;5016554;28;20025;-73
2022/10/01 12:50:17;;;;;;;8.20;1.35;;;17.40;94.10;;;;;;5016441;28;20052;-73
2022/10/01 12:53:01;;;;;;;8.52;1.40;;;17.50;94.80;;;;;;5016759;28;20026;-73
2022/10/01 12:55:58;;;;;;;8.20;0.88;;;17.80;95.00;;;;;;5016365;28;20034;-73
2022/10/01 12:59:07;;;;;;;9.40;1.40;;;17.90;95.10;;;;;;5016427;28;20022;-74
2022/10/01 13:01:43;;;;;;;8.32;1.05;;;18.00;95.10;;;;;;5016465;28;20393;-74
2022/10/01 13:04:25;;;;;;;10.40;1.00;;;18.10;94.80;;;;;;5016532;28;20025;-74
2022/10/01 13:07:18;;;;;;;11.27;1.70;;;18.10;95.00;;;;;;5016059;28;20065;-74
2022/10/01 13:09:46;;;;;;;14.68;1.27;;;18.10;95.00;;;;;;5016295;28;20057;-73
2022/10/01 13:12:37;;;;;;;9.35;1.10;;;18.00;95.00;;;;;;5016175;28;20085;-73
2022/10/01 13:15:09;;;;;;;8.82;1.10;;;18.00;95.60;;;;;;5015955;28;20046;-74
2022/10/01 13:17:48;;;;;;;11.32;2.15;;;18.10;96.00;;;;;;5016330;28;20022;-74
2022/10/01 13:20:26;;;;;;;10.52;1.40;;;18.10;95.70;;;;;;5015968;28;20030;-74